Pudsey, United Kingdom
Current Conditions -  °F | °C
As of 10:50 AM on Sunday 26 Oct 2014 (Local Time) from EGNM Reporting Station
Broken Clouds Broken Clouds  
Wind Chill: 54°   Ceiling: 2400
Heat Index: 54°   Visibility: 6mi
Dew Point: 46°   Wind: 18mph
Humidity: 77%   Direction: 210°SSW
Pressure: 29.91"   Gusts: NA
Location:  53.8°N, 1.66°W
Report Text: EGNM 260950Z 21016KT 9999 FEW015 BKN024 12/08 Q1013
Loading
Personal Weather Stations






























Interactive Weather Map New forecast layout! Learn more

10-Day Weather Forecast

Advertisements
Track Severe Weather on mobile